Time;durP1;ratioP1;P1;durP2;ratioP2;P2;SDS_P1;SDS_P2;PMS_P1;PMS_P2;Temp;Humidity;BMP_temperature;BMP_pressure;BME280_temperature;BME280_humidity;BME280_pressure;Samples;Min_cycle;Max_cycle;Signal;HPM_P1;HPM_P2
2022/03/21 00:01:21;;;;;;;36.42;19.95;;;11.20;87.30;;;;;;4947828;28;20027;-70
2022/03/21 00:03:47;;;;;;;37.45;15.52;;;11.20;87.40;;;;;;4944874;28;20035;-70
2022/03/21 00:06:13;;;;;;;31.15;15.88;;;11.20;87.60;;;;;;4951946;28;20047;-70
2022/03/21 00:08:39;;;;;;;32.33;16.55;;;11.20;87.70;;;;;;4940612;28;20036;-70
2022/03/21 00:11:05;;;;;;;27.95;15.70;;;11.20;87.90;;;;;;4938248;28;20042;-70
2022/03/21 00:13:31;;;;;;;30.73;15.43;;;11.10;88.00;;;;;;4951411;28;20047;-70
2022/03/21 00:15:57;;;;;;;32.28;14.80;;;11.10;88.10;;;;;;4952108;28;20039;-70
2022/03/21 00:18:24;;;;;;;24.48;12.65;;;11.20;88.80;;;;;;4952694;28;20054;-70
2022/03/21 00:20:53;;;;;;;30.40;14.50;;;11.10;88.20;;;;;;4950051;28;20471;-70
2022/03/21 00:23:20;;;;;;;25.40;13.82;;;11.10;88.40;;;;;;4972029;28;20028;-69
2022/03/21 00:25:46;;;;;;;25.50;15.50;;;11.10;88.40;;;;;;4968646;28;20027;-69
2022/03/21 00:28:12;;;;;;;29.23;13.73;;;11.10;88.40;;;;;;4951005;28;20486;-70
2022/03/21 00:30:41;;;;;;;24.05;12.80;;;11.10;88.40;;;;;;4950722;28;20041;-69
2022/03/21 00:33:07;;;;;;;26.73;13.32;;;11.10;88.50;;;;;;4972589;28;20036;-70
2022/03/21 00:35:33;;;;;;;30.17;13.35;;;11.00;88.40;;;;;;5003785;28;20034;-70
2022/03/21 00:37:59;;;;;;;24.95;12.18;;;11.00;88.40;;;;;;4952052;28;20138;-70
2022/03/21 00:40:29;;;;;;;24.80;12.68;;;11.00;88.40;;;;;;4938812;28;20028;-69
2022/03/21 00:42:56;;;;;;;24.60;13.63;;;11.10;88.50;;;;;;4940302;28;20074;-69
2022/03/21 00:45:26;;;;;;;28.52;13.10;;;11.10;88.60;;;;;;4945449;28;20032;-70
2022/03/21 00:47:54;;;;;;;24.88;13.48;;;11.00;88.60;;;;;;4946202;28;20794;-70
2022/03/21 00:50:22;;;;;;;27.80;14.48;;;11.10;88.70;;;;;;4945008;28;20032;-69
2022/03/21 00:52:50;;;;;;;26.90;13.88;;;11.10;88.70;;;;;;4934532;28;20035;-69
2022/03/21 00:55:18;;;;;;;26.70;14.57;;;11.10;88.80;;;;;;4951149;28;20467;-69
2022/03/21 00:57:45;;;;;;;26.67;13.93;;;11.10;88.80;;;;;;4951879;28;20050;-69
2022/03/21 01:00:14;;;;;;;24.83;12.95;;;11.10;88.90;;;;;;4951854;28;20047;-69
2022/03/21 01:02:40;;;;;;;23.83;12.75;;;11.00;89.00;;;;;;4951070;28;20074;-69
2022/03/21 01:05:07;;;;;;;26.77;13.23;;;11.00;89.10;;;;;;4952078;28;20034;-69
2022/03/21 01:07:33;;;;;;;26.42;12.57;;;11.00;89.10;;;;;;4950873;28;20043;-69
2022/03/21 01:09:59;;;;;;;22.80;12.38;;;11.00;89.20;;;;;;4945733;28;20066;-69
2022/03/21 01:12:25;;;;;;;22.80;12.55;;;11.00;89.10;;;;;;4944092;28;20038;-69
2022/03/21 01:14:51;;;;;;;22.20;12.38;;;11.00;89.20;;;;;;4950822;28;20038;-69
2022/03/21 01:17:17;;;;;;;23.73;12.88;;;11.00;89.20;;;;;;4939031;28;20062;-70
2022/03/21 01:19:43;;;;;;;24.00;12.05;;;11.10;89.20;;;;;;4950187;28;20035;-69
2022/03/21 01:22:09;;;;;;;20.55;11.75;;;11.00;89.10;;;;;;4951843;28;20032;-69
2022/03/21 01:24:35;;;;;;;25.08;13.15;;;11.00;89.20;;;;;;4993677;28;20901;-69
2022/03/21 01:27:02;;;;;;;26.17;12.38;;;11.00;89.10;;;;;;4950681;28;20035;-69
2022/03/21 01:29:28;;;;;;;25.85;12.38;;;11.00;89.10;;;;;;4938517;28;20038;-69
2022/03/21 01:31:54;;;;;;;25.35;13.23;;;11.00;89.10;;;;;;4950836;28;20036;-69
2022/03/21 01:34:19;;;;;;;22.10;12.00;;;11.00;89.10;;;;;;4944834;28;20581;-69
2022/03/21 01:36:45;;;;;;;25.77;12.88;;;11.00;89.10;;;;;;4931818;28;20040;-69
2022/03/21 01:39:11;;;;;;;24.48;12.82;;;11.00;89.10;;;;;;4939197;28;20090;-69
2022/03/21 01:41:36;;;;;;;29.38;13.70;;;11.00;89.10;;;;;;4950259;28;20026;-69
2022/03/21 01:44:07;;;;;;;26.75;14.02;;;11.10;89.10;;;;;;4950984;28;20570;-70
2022/03/21 01:46:34;;;;;;;22.00;12.40;;;11.00;89.00;;;;;;4951141;28;20046;-70
2022/03/21 01:49:02;;;;;;;22.83;12.45;;;11.00;89.00;;;;;;4951257;28;20057;-69
2022/03/21 01:51:28;;;;;;;30.13;13.10;;;11.00;89.00;;;;;;4937981;28;20120;-69
2022/03/21 01:56:45;;;;;;;24.10;13.00;;;11.00;89.00;;;;;;4950123;28;20438;-69
2022/03/21 01:59:11;;;;;;;23.95;12.63;;;11.00;88.90;;;;;;4950298;28;20054;-69
2022/03/21 02:01:38;;;;;;;28.83;14.13;;;11.00;89.00;;;;;;4951148;28;20031;-70
2022/03/21 02:04:04;;;;;;;25.75;12.65;;;11.00;89.00;;;;;;4949908;28;20117;-70
2022/03/21 02:06:30;;;;;;;22.98;12.23;;;11.00;89.00;;;;;;4938717;28;20447;-70
2022/03/21 02:09:02;;;;;;;18.83;10.80;;;11.00;89.00;;;;;;4976462;28;20108;-70
2022/03/21 02:11:29;;;;;;;27.20;14.20;;;11.00;89.10;;;;;;4945323;28;20119;-69
2022/03/21 02:14:01;;;;;;;23.08;13.75;;;11.00;89.10;;;;;;4951238;28;20031;-70
2022/03/21 02:16:28;;;;;;;29.08;13.90;;;11.00;89.20;;;;;;4945392;28;20082;-69
2022/03/21 02:18:55;;;;;;;27.15;13.60;;;10.90;89.20;;;;;;4944559;28;20075;-69
2022/03/21 02:21:32;;;;;;;28.38;15.10;;;11.00;89.40;;;;;;4941994;28;20050;-69
2022/03/21 02:24:33;;;;;;;25.95;13.40;;;10.90;89.40;;;;;;4950791;28;20118;-69
2022/03/21 02:26:59;;;;;;;30.90;14.52;;;10.90;89.50;;;;;;4956842;28;20047;-70
2022/03/21 02:29:27;;;;;;;35.13;16.02;;;10.90;89.50;;;;;;4945546;28;20530;-69
2022/03/21 02:31:57;;;;;;;34.60;16.73;;;10.90;89.60;;;;;;4942551;29;20044;-69
2022/03/21 02:34:24;;;;;;;33.47;15.40;;;10.80;89.60;;;;;;4944800;28;20554;-69
2022/03/21 02:36:54;;;;;;;32.88;15.00;;;10.80;89.70;;;;;;4950242;28;20039;-69
2022/03/21 02:39:21;;;;;;;35.47;15.27;;;10.80;89.70;;;;;;4950474;28;20028;-69
2022/03/21 02:41:47;;;;;;;30.05;15.70;;;10.80;90.10;;;;;;4949612;28;20799;-69
2022/03/21 02:44:13;;;;;;;28.60;14.48;;;10.80;89.70;;;;;;5012673;28;20032;-70
2022/03/21 02:46:39;;;;;;;27.08;12.60;;;10.70;89.50;;;;;;4939979;28;20394;-69
2022/03/21 02:49:06;;;;;;;29.98;14.95;;;10.70;89.50;;;;;;4933184;29;20036;-70
2022/03/21 02:51:36;;;;;;;30.27;15.63;;;10.70;89.50;;;;;;4946080;28;20656;-69
2022/03/21 02:54:02;;;;;;;29.08;15.45;;;10.70;89.30;;;;;;4950041;28;20471;-69
2022/03/21 02:56:27;;;;;;;31.23;15.73;;;10.70;89.30;;;;;;4934022;28;20040;-69
2022/03/21 02:58:53;;;;;;;29.55;15.32;;;10.70;89.20;;;;;;4940822;28;20051;-69
2022/03/21 03:01:20;;;;;;;29.15;14.90;;;10.60;89.10;;;;;;4945749;28;20743;-69
2022/03/21 03:03:46;;;;;;;27.73;14.48;;;10.60;89.10;;;;;;4931117;28;20118;-70
2022/03/21 03:06:12;;;;;;;28.30;14.98;;;10.60;89.10;;;;;;4948009;28;20058;-69
2022/03/21 03:08:40;;;;;;;29.80;15.45;;;10.60;89.20;;;;;;4949394;28;20126;-69
2022/03/21 03:11:06;;;;;;;26.50;14.63;;;10.60;89.20;;;;;;4945179;28;20023;-69
2022/03/21 03:13:32;;;;;;;31.20;16.15;;;10.50;89.10;;;;;;4931414;28;20639;-69
2022/03/21 03:15:58;;;;;;;27.67;13.60;;;10.50;89.10;;;;;;4948271;28;20119;-69
2022/03/21 03:18:24;;;;;;;27.70;14.15;;;10.50;89.30;;;;;;4950590;28;20069;-69
2022/03/21 03:20:51;;;;;;;31.25;13.80;;;10.50;89.10;;;;;;4944494;28;20440;-69
2022/03/21 03:23:19;;;;;;;32.85;15.07;;;10.50;89.20;;;;;;4936722;28;20047;-69
2022/03/21 03:25:46;;;;;;;28.85;15.05;;;10.40;89.10;;;;;;4946673;28;20035;-70
2022/03/21 03:28:15;;;;;;;27.52;14.15;;;10.40;89.10;;;;;;4940811;28;20654;-70
2022/03/21 03:30:41;;;;;;;26.38;14.77;;;10.40;89.10;;;;;;4936485;28;20027;-69
2022/03/21 03:33:08;;;;;;;28.38;14.52;;;10.40;89.20;;;;;;4950144;28;20485;-69
2022/03/21 03:35:34;;;;;;;23.90;13.40;;;10.30;89.10;;;;;;4945745;28;20042;-69
2022/03/21 03:38:01;;;;;;;25.15;12.65;;;10.30;89.10;;;;;;4934465;28;20039;-69
2022/03/21 03:40:27;;;;;;;24.85;10.52;;;10.30;89.30;;;;;;4947009;28;20036;-69
2022/03/21 03:42:53;;;;;;;28.02;12.75;;;10.30;89.90;;;;;;4942976;28;20145;-70
2022/03/21 03:45:19;;;;;;;26.77;11.93;;;10.20;90.00;;;;;;4933473;28;20036;-70
2022/03/21 03:47:45;;;;;;;25.92;13.63;;;10.10;90.00;;;;;;4942964;28;20416;-69
2022/03/21 03:50:11;;;;;;;24.38;13.05;;;10.10;90.00;;;;;;4936524;28;20035;-69
2022/03/21 03:52:37;;;;;;;32.88;12.73;;;10.10;90.00;;;;;;4937552;29;20027;-69
2022/03/21 03:55:03;;;;;;;22.52;11.88;;;10.10;89.90;;;;;;4936583;29;20043;-69
2022/03/21 03:57:29;;;;;;;25.58;13.27;;;10.10;89.60;;;;;;4950230;28;20058;-69
2022/03/21 03:59:55;;;;;;;29.23;15.43;;;10.10;89.30;;;;;;4952580;28;20081;-69
2022/03/21 04:02:21;;;;;;;29.92;14.40;;;10.10;89.20;;;;;;4952469;28;20042;-69
2022/03/21 04:04:46;;;;;;;28.83;14.57;;;10.00;88.90;;;;;;4940484;28;20495;-69
2022/03/21 04:07:12;;;;;;;31.50;15.38;;;10.10;88.80;;;;;;4952524;28;20495;-69
2022/03/21 04:09:38;;;;;;;26.92;14.65;;;10.00;88.60;;;;;;4952771;28;20046;-69
2022/03/21 04:12:04;;;;;;;30.20;15.13;;;10.00;88.40;;;;;;4952534;28;20036;-69
2022/03/21 04:14:29;;;;;;;34.60;14.80;;;10.10;88.20;;;;;;4952220;28;20051;-69
2022/03/21 04:16:55;;;;;;;27.42;14.30;;;10.00;87.80;;;;;;4965645;28;20025;-69
2022/03/21 04:19:21;;;;;;;26.33;13.13;;;10.00;87.70;;;;;;4934362;28;20032;-69
2022/03/21 04:21:47;;;;;;;25.63;13.80;;;10.00;87.50;;;;;;4944206;28;20039;-69
2022/03/21 04:24:13;;;;;;;27.70;15.38;;;10.00;87.20;;;;;;4952053;28;20093;-69
2022/03/21 04:26:38;;;;;;;26.38;14.40;;;10.00;87.20;;;;;;4941821;28;20036;-69
2022/03/21 04:29:04;;;;;;;29.70;14.85;;;9.90;87.10;;;;;;4933460;28;20035;-69
2022/03/21 04:31:33;;;;;;;26.13;15.10;;;9.90;87.20;;;;;;4944015;28;20044;-69
2022/03/21 04:33:59;;;;;;;27.92;14.68;;;9.90;87.10;;;;;;5001025;28;20048;-69
2022/03/21 04:36:25;;;;;;;28.02;14.23;;;9.90;87.10;;;;;;4995685;28;20042;-69
2022/03/21 04:38:54;;;;;;;29.02;15.25;;;9.90;87.00;;;;;;5020520;28;20385;-69
2022/03/21 04:41:20;;;;;;;31.48;15.13;;;9.90;87.00;;;;;;4994675;28;20042;-69
2022/03/21 04:43:45;;;;;;;30.17;15.40;;;9.80;87.00;;;;;;4959819;28;20065;-69
2022/03/21 04:46:11;;;;;;;24.90;14.10;;;9.80;87.10;;;;;;4951344;28;20530;-69
2022/03/21 04:48:37;;;;;;;27.80;13.40;;;9.80;87.20;;;;;;4950362;28;20394;-71
2022/03/21 04:51:02;;;;;;;29.30;14.50;;;9.80;87.40;;;;;;4943984;28;20036;-71
2022/03/21 04:53:28;;;;;;;26.83;13.35;;;9.80;87.50;;;;;;4947303;28;20379;-71
2022/03/21 04:55:53;;;;;;;31.35;14.50;;;9.70;87.50;;;;;;4944907;28;20047;-70
2022/03/21 04:58:19;;;;;;;28.42;13.77;;;9.70;87.60;;;;;;4947620;28;20047;-68
2022/03/21 05:00:45;;;;;;;30.65;13.75;;;9.70;87.70;;;;;;4951494;28;20039;-69
2022/03/21 05:03:11;;;;;;;25.50;12.75;;;9.70;87.80;;;;;;4951558;28;20038;-71
2022/03/21 05:05:37;;;;;;;23.73;11.30;;;9.70;87.80;;;;;;4951929;28;20043;-69
2022/03/21 05:08:04;;;;;;;25.83;12.57;;;9.70;87.90;;;;;;4951135;28;20046;-69
2022/03/21 05:10:32;;;;;;;28.90;13.63;;;9.60;88.00;;;;;;4951629;28;20046;-69
2022/03/21 05:12:58;;;;;;;25.33;12.20;;;9.60;88.00;;;;;;4951367;28;20031;-69
2022/03/21 05:15:25;;;;;;;30.00;13.60;;;9.60;88.10;;;;;;4950634;28;20505;-69
2022/03/21 05:17:53;;;;;;;30.23;14.20;;;9.60;88.10;;;;;;4992500;28;20390;-69
2022/03/21 05:20:19;;;;;;;28.35;12.52;;;9.60;88.10;;;;;;4940449;28;20032;-69
2022/03/21 05:30:57;;;;;;;28.10;13.07;;;9.50;88.10;;;;;;4943518;28;20041;-69
2022/03/21 05:31:05;;;;;;;23.40;12.18;;;9.50;88.20;;;;;;4939902;28;20031;-69
2022/03/21 05:36:23;;;;;;;26.67;12.20;;;9.40;88.40;;;;;;4940140;28;20090;-69
2022/03/21 05:38:49;;;;;;;26.20;12.10;;;9.40;88.50;;;;;;5008972;28;20037;-70
2022/03/21 05:41:15;;;;;;;25.05;11.85;;;9.40;88.60;;;;;;4948910;28;20128;-70
2022/03/21 05:43:41;;;;;;;25.27;11.98;;;9.40;88.60;;;;;;4955241;28;20472;-68
2022/03/21 05:46:06;;;;;;;25.85;12.00;;;9.40;88.70;;;;;;5020392;28;20040;-69
2022/03/21 05:48:50;;;;;;;24.63;12.90;;;9.40;88.70;;;;;;4951922;28;20394;-68
2022/03/21 05:51:18;;;;;;;26.08;13.38;;;9.40;88.80;;;;;;4999362;28;20029;-69
2022/03/21 05:53:45;;;;;;;32.28;13.77;;;9.30;88.70;;;;;;4994049;28;20087;-68
2022/03/21 05:56:11;;;;;;;29.77;12.70;;;9.30;88.80;;;;;;4987372;28;20362;-68
2022/03/21 05:58:37;;;;;;;25.88;13.40;;;9.30;88.80;;;;;;4987959;28;20045;-69
2022/03/21 06:01:04;;;;;;;27.95;13.15;;;9.30;88.80;;;;;;5001639;28;20029;-69
2022/03/21 06:03:30;;;;;;;25.23;13.07;;;9.30;88.90;;;;;;5002709;28;20025;-68
2022/03/21 06:05:57;;;;;;;27.50;12.60;;;9.30;88.90;;;;;;4979072;28;20364;-68
2022/03/21 06:08:23;;;;;;;26.10;12.18;;;9.30;89.00;;;;;;4983326;28;20061;-69
2022/03/21 06:10:49;;;;;;;27.20;12.05;;;9.20;88.90;;;;;;4973767;28;20035;-69
2022/03/21 06:13:16;;;;;;;21.67;11.13;;;9.20;89.00;;;;;;5012445;28;20031;-71
2022/03/21 06:15:45;;;;;;;23.48;11.63;;;9.20;89.00;;;;;;4948107;28;20146;-69
2022/03/21 06:18:12;;;;;;;21.65;11.30;;;9.20;89.00;;;;;;4991449;28;20140;-69
2022/03/21 06:20:39;;;;;;;24.77;12.68;;;9.20;89.10;;;;;;4993955;28;20503;-69
2022/03/21 06:23:05;;;;;;;23.48;11.95;;;9.10;89.20;;;;;;4991612;28;20027;-68
2022/03/21 06:25:32;;;;;;;29.42;12.57;;;9.20;89.30;;;;;;4976449;28;20396;-68
2022/03/21 06:27:57;;;;;;;25.27;10.88;;;9.10;89.30;;;;;;4992169;28;20034;-74
2022/03/21 06:30:23;;;;;;;41.50;13.13;;;9.10;89.50;;;;;;4986170;28;20025;-67
2022/03/21 06:32:49;;;;;;;24.63;12.60;;;9.10;89.60;;;;;;4992715;28;20033;-68
2022/03/21 06:35:15;;;;;;;24.50;13.73;;;9.20;89.80;;;;;;4985281;28;20029;-68
2022/03/21 06:37:41;;;;;;;30.63;13.75;;;9.20;89.90;;;;;;4979082;28;20487;-68
2022/03/21 06:40:09;;;;;;;42.10;13.63;;;9.10;90.00;;;;;;5000433;28;20087;-68
2022/03/21 06:42:35;;;;;;;29.08;13.65;;;9.20;90.10;;;;;;4990911;28;20484;-72
2022/03/21 06:45:03;;;;;;;27.92;13.25;;;9.10;90.10;;;;;;5002744;28;20529;-70
2022/03/21 06:47:29;;;;;;;25.70;12.35;;;9.10;90.20;;;;;;4979005;28;20121;-68
2022/03/21 06:49:55;;;;;;;24.52;12.38;;;9.10;90.30;;;;;;4973060;28;20059;-70
2022/03/21 06:52:20;;;;;;;28.95;12.98;;;9.10;90.40;;;;;;4994973;28;20451;-72
2022/03/21 06:54:48;;;;;;;28.35;13.27;;;9.10;90.50;;;;;;4989150;28;20041;-71
2022/03/21 06:57:18;;;;;;;26.38;13.75;;;9.10;90.60;;;;;;5026777;28;20049;-68
2022/03/21 06:59:45;;;;;;;26.85;13.43;;;9.10;90.60;;;;;;4953390;28;20053;-68
2022/03/21 07:02:12;;;;;;;25.05;11.95;;;9.10;90.70;;;;;;4948660;28;20509;-68
2022/03/21 07:04:37;;;;;;;26.70;13.43;;;9.10;90.80;;;;;;4936928;28;20487;-68
2022/03/21 07:07:03;;;;;;;26.35;12.77;;;9.10;90.80;;;;;;4949007;28;20042;-69
2022/03/21 07:09:29;;;;;;;22.35;9.73;;;9.00;90.80;;;;;;4935830;28;20039;-68
2022/03/21 07:11:54;;;;;;;24.10;14.05;;;9.00;90.80;;;;;;4950365;28;20043;-68
2022/03/21 07:14:21;;;;;;;24.20;14.07;;;9.00;90.90;;;;;;4949233;28;20475;-68
2022/03/21 07:16:47;;;;;;;29.98;14.15;;;9.10;91.00;;;;;;4968057;28;20436;-68
2022/03/21 07:19:13;;;;;;;33.08;14.32;;;9.10;91.10;;;;;;4958341;28;20033;-68
2022/03/21 07:21:39;;;;;;;29.38;13.13;;;9.10;91.10;;;;;;4948220;28;20107;-68
2022/03/21 07:24:05;;;;;;;29.73;13.93;;;9.10;91.20;;;;;;4939824;28;20059;-68
2022/03/21 07:26:33;;;;;;;25.98;13.18;;;9.10;91.20;;;;;;4953222;28;20042;-68
2022/03/21 07:29:00;;;;;;;30.92;13.70;;;9.10;91.30;;;;;;4952697;28;20038;-68
2022/03/21 07:31:26;;;;;;;30.70;13.88;;;9.10;91.30;;;;;;4952242;28;20479;-68
2022/03/21 07:33:51;;;;;;;32.00;13.70;;;9.10;91.40;;;;;;4953137;28;20122;-68
2022/03/21 07:36:17;;;;;;;25.10;13.23;;;9.20;91.50;;;;;;4952772;28;20085;-68
2022/03/21 07:38:43;;;;;;;27.10;13.48;;;9.20;91.50;;;;;;4953187;28;20118;-68
2022/03/21 07:41:08;;;;;;;27.02;13.75;;;9.20;91.60;;;;;;4953325;28;20031;-68
2022/03/21 07:43:35;;;;;;;31.92;14.77;;;9.20;91.60;;;;;;4947731;28;20032;-68
2022/03/21 07:48:44;;;;;;;;;;;9.30;91.70;;;;;;4942072;28;20027;-68
2022/03/21 07:51:11;;;;;;;30.40;14.60;;;9.30;91.60;;;;;;4952164;28;20281;-68
2022/03/21 07:53:36;;;;;;;25.88;11.88;;;9.40;91.60;;;;;;4953129;28;20036;-68
2022/03/21 07:56:02;;;;;;;26.58;14.73;;;9.40;91.60;;;;;;4952977;28;20043;-68
2022/03/21 07:58:28;;;;;;;33.28;14.55;;;9.40;91.50;;;;;;4952238;28;20368;-68
2022/03/21 08:00:56;;;;;;;29.83;15.07;;;9.40;91.50;;;;;;4950991;28;20105;-68
2022/03/21 08:03:22;;;;;;;28.83;14.02;;;9.50;91.70;;;;;;4952635;28;20062;-68
2022/03/21 08:05:48;;;;;;;21.17;9.63;;;9.50;91.50;;;;;;4949574;28;20039;-68
2022/03/21 08:08:15;;;;;;;26.98;13.35;;;9.50;91.40;;;;;;4933705;28;20552;-69
2022/03/21 08:10:42;;;;;;;37.47;15.57;;;9.60;91.30;;;;;;4949218;28;20043;-68
2022/03/21 08:13:08;;;;;;;29.75;13.88;;;9.60;91.20;;;;;;4952611;28;20438;-68
2022/03/21 08:15:36;;;;;;;31.83;14.45;;;9.60;91.30;;;;;;4948713;28;20051;-68
2022/03/21 08:18:03;;;;;;;19.55;9.68;;;9.60;91.30;;;;;;4959757;28;20089;-68
2022/03/21 08:20:33;;;;;;;25.17;10.60;;;9.70;91.50;;;;;;4952338;28;20055;-68
2022/03/21 08:23:01;;;;;;;27.55;13.70;;;9.70;91.20;;;;;;4944887;29;20058;-68
2022/03/21 08:25:27;;;;;;;17.88;9.23;;;9.70;91.00;;;;;;4945918;28;20032;-69
2022/03/21 08:27:53;;;;;;;25.10;5.65;;;9.70;90.90;;;;;;4952338;28;20072;-69
2022/03/21 08:30:19;;;;;;;26.02;12.98;;;9.70;90.90;;;;;;4952305;28;20132;-68
2022/03/21 08:32:49;;;;;;;10.27;4.90;;;9.70;90.90;;;;;;4951769;28;20533;-68
2022/03/21 08:35:18;;;;;;;27.08;11.73;;;9.70;90.90;;;;;;4951883;28;20034;-68
2022/03/21 08:37:48;;;;;;;19.48;8.30;;;9.60;91.00;;;;;;4952619;28;20057;-69
2022/03/21 08:40:14;;;;;;;35.85;14.52;;;9.70;91.10;;;;;;4947942;28;20024;-68
2022/03/21 08:42:40;;;;;;;30.33;14.07;;;9.60;91.10;;;;;;4943241;28;20491;-68
2022/03/21 08:45:07;;;;;;;35.63;13.85;;;9.70;91.20;;;;;;4952240;28;20027;-68
2022/03/21 08:47:34;;;;;;;27.92;13.23;;;9.80;91.20;;;;;;4951740;28;20051;-68
2022/03/21 08:50:00;;;;;;;17.08;8.98;;;9.80;91.10;;;;;;4951863;28;20084;-69
2022/03/21 08:52:25;;;;;;;32.67;13.88;;;9.90;91.10;;;;;;4951522;28;20038;-68
2022/03/21 08:54:51;;;;;;;27.92;14.52;;;9.90;91.00;;;;;;4951226;28;20035;-68
2022/03/21 08:57:17;;;;;;;32.15;14.85;;;10.00;91.00;;;;;;4940047;28;20068;-68
2022/03/21 08:59:44;;;;;;;23.35;10.65;;;10.10;91.10;;;;;;4950262;28;20086;-68
2022/03/21 09:02:10;;;;;;;32.13;15.02;;;10.20;91.00;;;;;;4951961;28;20040;-68
2022/03/21 09:04:35;;;;;;;30.95;14.13;;;10.20;90.80;;;;;;4945655;28;20042;-69
2022/03/21 09:07:13;;;;;;;30.30;13.27;;;10.30;90.90;;;;;;4944656;28;20542;-69
2022/03/21 09:09:39;;;;;;;23.15;11.63;;;10.40;91.00;;;;;;4943626;28;20036;-68
2022/03/21 09:12:05;;;;;;;31.38;12.73;;;10.40;90.70;;;;;;4946471;28;20070;-68
2022/03/21 09:14:31;;;;;;;30.60;13.68;;;10.50;90.60;;;;;;4951158;28;20051;-69
2022/03/21 09:16:57;;;;;;;33.08;13.77;;;10.50;90.60;;;;;;4971498;28;20456;-69
2022/03/21 09:19:23;;;;;;;9.73;5.75;;;10.50;90.60;;;;;;4939971;28;20027;-69
2022/03/21 09:21:53;;;;;;;28.10;14.07;;;10.60;90.50;;;;;;4965710;28;20509;-69
2022/03/21 09:24:18;;;;;;;22.40;10.90;;;10.60;90.50;;;;;;4963625;28;20118;-69
2022/03/21 09:26:44;;;;;;;30.75;13.82;;;10.60;90.60;;;;;;4970277;28;20111;-69
2022/03/21 09:29:09;;;;;;;29.25;13.63;;;10.60;90.50;;;;;;4949119;28;20027;-70
2022/03/21 09:31:41;;;;;;;34.92;15.43;;;10.60;90.50;;;;;;4954261;28;20458;-70
2022/03/21 09:34:08;;;;;;;33.33;15.73;;;10.70;90.70;;;;;;4951724;28;20042;-70
2022/03/21 09:36:35;;;;;;;31.40;14.95;;;10.80;90.70;;;;;;4988893;28;20483;-70
2022/03/21 09:39:01;;;;;;;31.83;15.43;;;10.90;90.70;;;;;;4948655;28;20063;-70
2022/03/21 09:41:29;;;;;;;28.55;15.32;;;11.00;90.60;;;;;;4944465;28;20067;-74
2022/03/21 09:44:00;;;;;;;32.15;15.35;;;11.10;90.60;;;;;;4972435;28;20108;-70
2022/03/21 09:46:26;;;;;;;16.30;6.32;;;11.10;90.50;;;;;;4993863;28;20116;-70
2022/03/21 09:48:54;;;;;;;28.70;10.77;;;11.30;90.50;;;;;;4974442;28;20075;-70
2022/03/21 09:51:22;;;;;;;29.52;11.65;;;11.30;90.20;;;;;;4970359;28;20039;-69
2022/03/21 09:53:48;;;;;;;21.48;8.90;;;11.30;90.20;;;;;;4978218;28;20112;-69
2022/03/21 09:56:15;;;;;;;23.75;8.43;;;11.20;90.20;;;;;;4943002;28;20943;-70
2022/03/21 09:58:41;;;;;;;27.13;14.57;;;11.30;90.30;;;;;;4965791;28;20087;-69
2022/03/21 10:01:07;;;;;;;20.00;9.57;;;11.30;90.30;;;;;;4976990;28;20038;-70
2022/03/21 10:03:36;;;;;;;28.98;14.75;;;11.30;90.30;;;;;;4950119;28;20043;-67
2022/03/21 10:06:01;;;;;;;29.60;15.32;;;11.30;90.40;;;;;;4950882;28;20126;-67
2022/03/21 10:08:28;;;;;;;26.20;12.60;;;11.30;90.50;;;;;;4950763;28;20138;-67
2022/03/21 10:10:56;;;;;;;28.65;14.25;;;11.40;90.40;;;;;;4942088;28;20039;-66
2022/03/21 10:13:27;;;;;;;33.65;15.70;;;11.40;90.20;;;;;;4944376;28;20500;-66
2022/03/21 10:16:18;;;;;;;35.40;15.40;;;11.50;90.50;;;;;;4941797;28;20457;-68
2022/03/21 10:18:52;;;;;;;38.53;13.43;;;11.60;90.10;;;;;;5004273;28;20113;-68
2022/03/21 10:21:20;;;;;;;25.10;12.23;;;11.70;89.90;;;;;;4942807;28;20027;-68
2022/03/21 10:24:06;;;;;;;34.13;13.77;;;11.70;89.80;;;;;;4936254;28;20032;-69
2022/03/21 10:26:40;;;;;;;33.08;14.82;;;11.70;89.50;;;;;;4945177;28;20071;-68
2022/03/21 10:29:10;;;;;;;30.75;14.95;;;11.80;88.90;;;;;;4961428;28;20478;-67
2022/03/21 10:31:48;;;;;;;21.25;9.13;;;11.90;88.90;;;;;;4948910;28;20046;-67
2022/03/21 10:34:18;;;;;;;20.23;8.50;;;11.90;88.60;;;;;;4937869;28;20054;-67
2022/03/21 10:37:07;;;;;;;25.85;13.15;;;12.00;89.10;;;;;;4950571;28;20035;-67
2022/03/21 10:39:35;;;;;;;28.27;12.88;;;12.00;88.50;;;;;;4948383;28;20411;-67
2022/03/21 10:42:04;;;;;;;25.27;13.48;;;12.10;87.90;;;;;;4950284;28;20070;-67
2022/03/21 10:44:32;;;;;;;21.50;8.82;;;12.10;87.10;;;;;;4938058;28;20504;-67
2022/03/21 10:47:03;;;;;;;20.42;9.00;;;12.20;88.10;;;;;;4940899;28;20034;-67
2022/03/21 10:49:30;;;;;;;14.18;7.70;;;12.20;88.20;;;;;;4938571;28;20027;-67
2022/03/21 10:51:56;;;;;;;9.52;4.28;;;12.10;88.40;;;;;;4949459;28;20050;-67
2022/03/21 10:54:35;;;;;;;22.55;11.00;;;12.20;89.20;;;;;;4950416;28;20024;-67
2022/03/21 10:57:05;;;;;;;9.43;4.18;;;12.10;87.00;;;;;;4950081;28;20047;-67
2022/03/21 10:59:32;;;;;;;13.10;5.25;;;12.10;88.50;;;;;;4949381;28;20381;-67
2022/03/21 11:02:19;;;;;;;17.27;7.45;;;12.10;89.40;;;;;;4950024;28;20395;-68
2022/03/21 11:04:45;;;;;;;6.72;3.88;;;12.10;89.30;;;;;;4950057;28;20398;-68
2022/03/21 11:07:12;;;;;;;20.35;9.82;;;12.10;89.80;;;;;;4949732;28;20031;-67
2022/03/21 11:09:42;;;;;;;26.30;14.15;;;12.10;89.60;;;;;;4951230;28;20390;-67
2022/03/21 11:12:09;;;;;;;23.50;12.38;;;12.10;88.40;;;;;;4976134;28;20111;-69
2022/03/21 11:14:37;;;;;;;18.63;8.05;;;12.10;87.80;;;;;;4971812;28;20032;-67
2022/03/21 11:17:05;;;;;;;26.85;10.65;;;12.20;88.70;;;;;;4950603;28;20050;-67
2022/03/21 11:19:31;;;;;;;28.23;13.75;;;12.20;88.90;;;;;;4950069;28;20113;-67
2022/03/21 11:21:58;;;;;;;20.35;11.95;;;12.30;87.30;;;;;;4946254;28;20501;-67
2022/03/21 11:24:24;;;;;;;23.88;11.75;;;12.40;86.50;;;;;;4977653;28;20029;-67
2022/03/21 11:27:22;;;;;;;15.93;8.00;;;12.50;86.10;;;;;;4971442;28;20482;-67
2022/03/21 11:30:09;;;;;;;21.58;9.80;;;12.60;87.20;;;;;;4979134;28;20047;-67
2022/03/21 11:32:43;;;;;;;29.70;13.63;;;12.70;86.90;;;;;;4979652;28;20033;-67
2022/03/21 11:35:17;;;;;;;27.25;11.13;;;12.90;85.60;;;;;;4965199;28;20528;-67
2022/03/21 11:37:43;;;;;;;25.20;11.65;;;12.90;84.90;;;;;;4974232;28;20073;-67
2022/03/21 11:40:32;;;;;;;21.42;11.65;;;13.10;84.50;;;;;;4957261;28;20081;-68
2022/03/21 11:43:19;;;;;;;13.43;5.88;;;13.20;83.50;;;;;;4980939;28;20469;-68
2022/03/21 11:45:57;;;;;;;24.15;12.57;;;13.30;86.50;;;;;;4981519;28;20368;-68
2022/03/21 11:48:23;;;;;;;30.88;14.90;;;13.20;86.40;;;;;;4978853;28;20031;-67
2022/03/21 11:50:54;;;;;;;23.98;11.48;;;13.30;85.90;;;;;;4964604;28;20088;-68
2022/03/21 11:53:33;;;;;;;24.08;8.90;;;13.30;86.00;;;;;;4990622;28;20023;-67
2022/03/21 11:55:59;;;;;;;29.00;14.73;;;13.50;85.10;;;;;;4959210;28;20035;-68
2022/03/21 11:58:40;;;;;;;26.50;14.85;;;13.50;85.10;;;;;;4981746;28;20553;-68
2022/03/21 12:01:10;;;;;;;30.30;14.50;;;13.60;84.60;;;;;;4971086;28;20039;-68
2022/03/21 12:03:37;;;;;;;27.02;15.07;;;13.70;83.30;;;;;;4948986;28;20189;-68
2022/03/21 12:06:31;;;;;;;23.80;13.55;;;13.80;82.20;;;;;;4947077;28;20031;-69
2022/03/21 12:09:10;;;;;;;27.60;14.35;;;13.90;81.50;;;;;;4962776;28;20177;-67
2022/03/21 12:11:38;;;;;;;28.27;13.27;;;13.90;82.50;;;;;;5000306;28;20050;-66
2022/03/21 12:14:40;;;;;;;29.48;15.30;;;14.00;82.10;;;;;;4961304;28;21135;-66
2022/03/21 12:17:11;;;;;;;30.52;14.43;;;14.10;81.60;;;;;;4964718;28;20505;-66
2022/03/21 12:19:57;;;;;;;24.73;13.95;;;14.20;81.80;;;;;;5000924;28;20030;-68
2022/03/21 12:22:39;;;;;;;26.45;14.10;;;14.20;81.30;;;;;;4961897;28;20212;-67
2022/03/21 12:25:16;;;;;;;26.95;13.13;;;14.30;80.70;;;;;;4967950;28;20031;-67
2022/03/21 12:27:42;;;;;;;14.90;7.05;;;14.40;81.70;;;;;;4971079;28;20031;-67
2022/03/21 12:32:50;;;;;;;21.77;11.32;;;14.50;83.40;;;;;;4945338;28;20035;-68
2022/03/21 12:35:31;;;;;;;28.38;13.77;;;14.50;83.20;;;;;;4957013;28;20074;-67
2022/03/21 12:38:22;;;;;;;38.05;16.52;;;14.50;84.60;;;;;;4965180;28;20040;-68
2022/03/21 12:40:51;;;;;;;29.15;14.82;;;14.50;86.00;;;;;;4973826;28;20108;-68
2022/03/21 12:43:28;;;;;;;24.65;13.75;;;14.60;85.10;;;;;;4950523;28;20072;-67
2022/03/21 12:46:12;;;;;;;26.17;13.35;;;14.70;83.10;;;;;;4970980;28;20074;-67
2022/03/21 12:49:14;;;;;;;34.92;14.02;;;14.70;83.50;;;;;;4984377;28;20104;-67
2022/03/21 12:51:39;;;;;;;24.13;12.63;;;14.80;83.50;;;;;;5002357;28;20084;-67
2022/03/21 12:54:06;;;;;;;27.27;14.10;;;14.90;85.20;;;;;;4993909;28;20033;-68